sensor_id;sensor_type;location;lat;lon;timestamp;pressure;altitude;pressure_sealevel;temperature;humidity
6423;BME280;3244;42.708;23.288;2023-02-15T00:00:10;96266.94;;;3.07;75.84
6423;BME280;3244;42.708;23.288;2023-02-15T00:02:37;96259.38;;;3.05;75.88
6423;BME280;3244;42.708;23.288;2023-02-15T00:05:05;96261.91;;;3.07;75.81
6423;BME280;3244;42.708;23.288;2023-02-15T00:07:31;96263.66;;;3.11;76.35
6423;BME280;3244;42.708;23.288;2023-02-15T00:09:58;96262.69;;;3.03;76.32
6423;BME280;3244;42.708;23.288;2023-02-15T00:12:25;96266.84;;;3.01;76.66
6423;BME280;3244;42.708;23.288;2023-02-15T00:14:53;96276.78;;;2.92;77.01
6423;BME280;3244;42.708;23.288;2023-02-15T00:17:20;96278.47;;;2.93;76.90
6423;BME280;3244;42.708;23.288;2023-02-15T00:19:47;96284.41;;;2.99;77.02
6423;BME280;3244;42.708;23.288;2023-02-15T00:22:14;96282.00;;;3.07;nan
6423;BME280;3244;42.708;23.288;2023-02-15T00:24:41;96267.63;;;2.95;76.34
6423;BME280;3244;42.708;23.288;2023-02-15T00:27:07;96279.16;;;2.84;76.70
6423;BME280;3244;42.708;23.288;2023-02-15T00:29:35;96278.22;;;2.78;77.75
6423;BME280;3244;42.708;23.288;2023-02-15T00:32:03;96272.34;;;2.77;77.16
6423;BME280;3244;42.708;23.288;2023-02-15T00:34:30;96286.66;;;2.83;77.04
6423;BME280;3244;42.708;23.288;2023-02-15T00:36:57;96276.63;;;2.83;77.28
6423;BME280;3244;42.708;23.288;2023-02-15T00:39:24;96283.28;;;2.81;77.28
6423;BME280;3244;42.708;23.288;2023-02-15T00:41:52;96279.16;;;2.84;77.11
6423;BME280;3244;42.708;23.288;2023-02-15T00:44:19;96288.34;;;2.84;77.21
6423;BME280;3244;42.708;23.288;2023-02-15T00:46:46;96285.78;;;2.81;77.88
6423;BME280;3244;42.708;23.288;2023-02-15T00:49:14;96273.19;;;2.78;77.42
6423;BME280;3244;42.708;23.288;2023-02-15T00:51:41;96283.16;;;2.74;78.00
6423;BME280;3244;42.708;23.288;2023-02-15T00:54:07;96286.44;;;2.67;78.18
6423;BME280;3244;42.708;23.288;2023-02-15T00:56:34;96281.41;;;2.67;78.07
6423;BME280;3244;42.708;23.288;2023-02-15T00:59:01;96281.31;;;2.61;78.00
6423;BME280;3244;42.708;23.288;2023-02-15T01:01:28;96283.69;;;2.55;78.82
6423;BME280;3244;42.708;23.288;2023-02-15T01:03:55;96280.44;;;2.59;78.34
6423;BME280;3244;42.708;23.288;2023-02-15T01:06:23;96282.09;;;2.59;78.59
6423;BME280;3244;42.708;23.288;2023-02-15T01:08:50;96281.28;;;2.60;77.96
6423;BME280;3244;42.708;23.288;2023-02-15T01:11:18;96278.78;;;2.61;77.97
6423;BME280;3244;42.708;23.288;2023-02-15T01:13:47;96276.22;;;2.58;78.71
6423;BME280;3244;42.708;23.288;2023-02-15T01:16:14;96279.56;;;2.57;78.30
6423;BME280;3244;42.708;23.288;2023-02-15T01:18:41;96271.03;;;2.49;78.60
6423;BME280;3244;42.708;23.288;2023-02-15T01:21:10;96270.25;;;2.52;77.97
6423;BME280;3244;42.708;23.288;2023-02-15T01:23:38;96271.16;;;2.55;77.93
6423;BME280;3244;42.708;23.288;2023-02-15T01:26:05;96268.47;;;2.45;78.01
6423;BME280;3244;42.708;23.288;2023-02-15T01:28:31;96274.34;;;2.45;78.97
6423;BME280;3244;42.708;23.288;2023-02-15T01:30:58;96267.81;;;2.55;78.93
6423;BME280;3244;42.708;23.288;2023-02-15T01:33:25;96268.66;;;2.57;78.29
6423;BME280;3244;42.708;23.288;2023-02-15T01:35:56;96267.81;;;2.56;78.14
6423;BME280;3244;42.708;23.288;2023-02-15T01:38:23;96266.09;;;2.54;78.60
6423;BME280;3244;42.708;23.288;2023-02-15T01:40:52;96264.50;;;2.57;78.58
6423;BME280;3244;42.708;23.288;2023-02-15T01:43:19;96263.59;;;2.54;78.53
6423;BME280;3244;42.708;23.288;2023-02-15T01:45:46;96257.78;;;2.56;78.80
6423;BME280;3244;42.708;23.288;2023-02-15T01:48:19;96260.41;;;2.62;78.92
6423;BME280;3244;42.708;23.288;2023-02-15T01:50:50;96261.31;;;2.67;78.56
6423;BME280;3244;42.708;23.288;2023-02-15T01:53:21;96250.41;;;2.65;78.34
6423;BME280;3244;42.708;23.288;2023-02-15T01:55:54;96245.25;;;2.56;78.67
6423;BME280;3244;42.708;23.288;2023-02-15T01:58:24;96240.22;;;2.56;78.78
6423;BME280;3244;42.708;23.288;2023-02-15T02:00:52;96252.72;;;2.53;78.62
6423;BME280;3244;42.708;23.288;2023-02-15T02:03:25;96247.69;;;2.53;79.37
6423;BME280;3244;42.708;23.288;2023-02-15T02:05:57;96241.94;;;2.59;80.12
6423;BME280;3244;42.708;23.288;2023-02-15T02:08:24;96241.19;;;2.64;80.07
6423;BME280;3244;42.708;23.288;2023-02-15T02:10:50;96250.38;;;2.62;79.43
6423;BME280;3244;42.708;23.288;2023-02-15T02:13:19;96248.69;;;2.61;79.13
6423;BME280;3244;42.708;23.288;2023-02-15T02:15:49;96246.06;;;2.55;79.03
6423;BME280;3244;42.708;23.288;2023-02-15T02:18:33;96251.06;;;2.55;79.77
6423;BME280;3244;42.708;23.288;2023-02-15T02:24:21;96256.00;;;2.49;78.82
6423;BME280;3244;42.708;23.288;2023-02-15T02:27:21;96261.81;;;2.45;78.91
6423;BME280;3244;42.708;23.288;2023-02-15T02:33:29;96253.44;;;2.45;79.39
6423;BME280;3244;42.708;23.288;2023-02-15T02:36:05;96257.66;;;2.47;79.60
6423;BME280;3244;42.708;23.288;2023-02-15T02:38:42;96259.31;;;2.47;78.67
6423;BME280;3244;42.708;23.288;2023-02-15T02:41:17;96261.75;;;2.42;79.47
6423;BME280;3244;42.708;23.288;2023-02-15T02:43:51;96260.97;;;2.46;79.88
6423;BME280;3244;42.708;23.288;2023-02-15T02:46:24;96258.56;;;2.52;79.79
6423;BME280;3244;42.708;23.288;2023-02-15T02:48:54;96254.19;;;2.41;79.38
6423;BME280;3244;42.708;23.288;2023-02-15T02:51:21;96261.69;;;2.39;79.95
6423;BME280;3244;42.708;23.288;2023-02-15T02:53:51;96256.81;;;2.47;79.34
6423;BME280;3244;42.708;23.288;2023-02-15T02:56:24;96261.97;;;2.56;79.87
6423;BME280;3244;42.708;23.288;2023-02-15T02:58:56;96266.22;;;2.60;79.05
6423;BME280;3244;42.708;23.288;2023-02-15T03:01:30;96267.97;;;2.64;79.29
6423;BME280;3244;42.708;23.288;2023-02-15T03:04:03;96268.13;;;2.74;79.53
6423;BME280;3244;42.708;23.288;2023-02-15T03:06:36;96269.97;;;2.85;79.35
6423;BME280;3244;42.708;23.288;2023-02-15T03:09:08;96271.81;;;2.95;78.84
6423;BME280;3244;42.708;23.288;2023-02-15T03:11:41;96271.81;;;2.96;78.73
6423;BME280;3244;42.708;23.288;2023-02-15T03:14:08;96275.34;;;3.09;78.76
6423;BME280;3244;42.708;23.288;2023-02-15T03:16:36;96277.19;;;3.19;78.21
6423;BME280;3244;42.708;23.288;2023-02-15T03:19:09;96273.88;;;3.23;77.79
6423;BME280;3244;42.708;23.288;2023-02-15T03:21:41;96272.31;;;3.31;78.28
6423;BME280;3244;42.708;23.288;2023-02-15T03:24:25;96267.38;;;3.37;77.67
6423;BME280;3244;42.708;23.288;2023-02-15T03:26:56;96269.13;;;3.41;77.38
6423;BME280;3244;42.708;23.288;2023-02-15T03:29:26;96265.72;;;3.39;77.32
6423;BME280;3244;42.708;23.288;2023-02-15T03:31:56;96275.16;;;3.57;76.95
6423;BME280;3244;42.708;23.288;2023-02-15T03:34:26;96272.69;;;3.59;77.09
6423;BME280;3244;42.708;23.288;2023-02-15T03:36:58;96280.16;;;3.54;77.09
6423;BME280;3244;42.708;23.288;2023-02-15T03:39:30;96279.41;;;3.60;77.17
6423;BME280;3244;42.708;23.288;2023-02-15T03:42:06;96272.72;;;3.62;76.89
6423;BME280;3244;42.708;23.288;2023-02-15T03:44:41;96276.97;;;3.66;76.87
6423;BME280;3244;42.708;23.288;2023-02-15T03:47:13;96275.34;;;3.72;77.11
6423;BME280;3244;42.708;23.288;2023-02-15T03:49:44;96272.84;;;3.74;76.38
6423;BME280;3244;42.708;23.288;2023-02-15T03:52:16;96269.47;;;3.72;76.86
6423;BME280;3244;42.708;23.288;2023-02-15T03:54:44;96266.13;;;3.73;76.48
6423;BME280;3244;42.708;23.288;2023-02-15T03:57:18;96263.63;;;3.73;76.58
6423;BME280;3244;42.708;23.288;2023-02-15T04:00:05;96278.00;;;3.83;76.53
6423;BME280;3244;42.708;23.288;2023-02-15T04:02:57;96275.56;;;3.88;76.12
6423;BME280;3244;42.708;23.288;2023-02-15T04:05:28;96271.41;;;3.91;76.48
6423;BME280;3244;42.708;23.288;2023-02-15T04:07:55;96269.81;;;4.01;75.97
6423;BME280;3244;42.708;23.288;2023-02-15T04:10:22;96280.66;;;3.97;76.02
6423;BME280;3244;42.708;23.288;2023-02-15T04:13:18;96284.84;;;3.96;76.16
6423;BME280;3244;42.708;23.288;2023-02-15T04:15:45;96288.22;;;3.98;75.75
6423;BME280;3244;42.708;23.288;2023-02-15T04:18:29;96284.94;;;4.04;75.94
6423;BME280;3244;42.708;23.288;2023-02-15T04:21:14;96285.81;;;4.06;75.28
6423;BME280;3244;42.708;23.288;2023-02-15T04:23:59;96297.63;;;4.12;75.62
6423;BME280;3244;42.708;23.288;2023-02-15T04:26:43;96292.59;;;4.13;75.51
6423;BME280;3244;42.708;23.288;2023-02-15T04:29:11;96295.25;;;4.27;74.42
6423;BME280;3244;42.708;23.288;2023-02-15T04:31:38;96307.91;;;4.31;74.52
6423;BME280;3244;42.708;23.288;2023-02-15T04:34:04;96311.19;;;4.27;74.66
6423;BME280;3244;42.708;23.288;2023-02-15T04:36:32;96305.28;;;4.24;74.39
6423;BME280;3244;42.708;23.288;2023-02-15T04:38:59;96319.56;;;4.26;74.77
6423;BME280;3244;42.708;23.288;2023-02-15T04:41:26;96315.31;;;4.18;74.86
6423;BME280;3244;42.708;23.288;2023-02-15T04:43:53;96313.50;;;4.07;75.27
6423;BME280;3244;42.708;23.288;2023-02-15T04:46:19;96315.13;;;4.04;75.95
6423;BME280;3244;42.708;23.288;2023-02-15T04:48:46;96312.66;;;4.07;75.42
6423;BME280;3244;42.708;23.288;2023-02-15T04:51:13;96299.28;;;4.09;75.66
6423;BME280;3244;42.708;23.288;2023-02-15T04:53:41;96311.06;;;4.14;75.10
6423;BME280;3244;42.708;23.288;2023-02-15T04:56:08;96316.97;;;4.16;75.38
6423;BME280;3244;42.708;23.288;2023-02-15T04:58:35;96323.63;;;4.14;75.28
6423;BME280;3244;42.708;23.288;2023-02-15T05:01:02;96331.22;;;4.17;74.91
6423;BME280;3244;42.708;23.288;2023-02-15T05:03:29;96336.25;;;4.15;75.24
6423;BME280;3244;42.708;23.288;2023-02-15T05:05:56;96322.03;;;4.19;75.02
6423;BME280;3244;42.708;23.288;2023-02-15T05:08:22;96322.81;;;4.15;75.28
6423;BME280;3244;42.708;23.288;2023-02-15T05:10:50;96322.00;;;4.17;75.14
6423;BME280;3244;42.708;23.288;2023-02-15T05:13:17;96331.22;;;4.17;75.15
6423;BME280;3244;42.708;23.288;2023-02-15T05:15:47;96338.78;;;4.17;75.21
6423;BME280;3244;42.708;23.288;2023-02-15T05:18:14;96333.72;;;4.14;75.58
6423;BME280;3244;42.708;23.288;2023-02-15T05:20:41;96345.53;;;4.19;75.23
6423;BME280;3244;42.708;23.288;2023-02-15T05:23:07;96342.97;;;4.18;75.14
6423;BME280;3244;42.708;23.288;2023-02-15T05:25:34;96343.84;;;4.20;74.91
6423;BME280;3244;42.708;23.288;2023-02-15T05:28:19;96347.97;;;4.15;75.44
6423;BME280;3244;42.708;23.288;2023-02-15T05:30:47;96352.22;;;4.19;75.44
6423;BME280;3244;42.708;23.288;2023-02-15T05:33:14;96353.88;;;4.17;75.54
6423;BME280;3244;42.708;23.288;2023-02-15T05:35:41;96348.81;;;4.14;75.28
6423;BME280;3244;42.708;23.288;2023-02-15T05:38:07;96361.53;;;4.29;76.06
6423;BME280;3244;42.708;23.288;2023-02-15T05:40:34;96356.59;;;4.35;75.58
6423;BME280;3244;42.708;23.288;2023-02-15T05:43:01;96362.53;;;4.41;75.15
6423;BME280;3244;42.708;23.288;2023-02-15T05:45:29;96353.31;;;4.40;75.42
6423;BME280;3244;42.708;23.288;2023-02-15T05:47:56;96363.34;;;4.39;74.78
6423;BME280;3244;42.708;23.288;2023-02-15T05:50:24;96358.38;;;4.43;75.19
6423;BME280;3244;42.708;23.288;2023-02-15T05:52:51;96364.34;;;4.53;74.65
6423;BME280;3244;42.708;23.288;2023-02-15T05:55:18;96367.72;;;4.55;74.38
6423;BME280;3244;42.708;23.288;2023-02-15T05:57:45;96356.78;;;4.55;74.33
6423;BME280;3244;42.708;23.288;2023-02-15T06:00:13;96367.69;;;4.52;74.36
6423;BME280;3244;42.708;23.288;2023-02-15T06:02:41;96366.09;;;4.60;74.10
6423;BME280;3244;42.708;23.288;2023-02-15T06:05:08;96369.44;;;4.59;74.38
6423;BME280;3244;42.708;23.288;2023-02-15T06:07:35;96365.34;;;4.72;74.35
6423;BME280;3244;42.708;23.288;2023-02-15T06:10:02;96367.97;;;4.79;73.32
6423;BME280;3244;42.708;23.288;2023-02-15T06:12:29;96364.66;;;4.85;73.60
6423;BME280;3244;42.708;23.288;2023-02-15T06:14:56;96361.38;;;4.91;72.73
6423;BME280;3244;42.708;23.288;2023-02-15T06:17:23;96363.09;;;4.95;73.13
6423;BME280;3244;42.708;23.288;2023-02-15T06:19:51;96366.50;;;5.03;73.36
6423;BME280;3244;42.708;23.288;2023-02-15T06:22:17;96368.28;;;5.15;73.13
6423;BME280;3244;42.708;23.288;2023-02-15T06:24:45;96373.41;;;5.25;72.17
6423;BME280;3244;42.708;23.288;2023-02-15T06:27:12;96374.25;;;5.29;71.79
6423;BME280;3244;42.708;23.288;2023-02-15T06:29:39;96373.56;;;5.43;70.86
6423;BME280;3244;42.708;23.288;2023-02-15T06:32:05;96371.88;;;5.48;69.73
6423;BME280;3244;42.708;23.288;2023-02-15T06:34:32;96372.69;;;5.44;69.86
6423;BME280;3244;42.708;23.288;2023-02-15T06:37:00;96372.75;;;5.52;70.71
6423;BME280;3244;42.708;23.288;2023-02-15T06:39:27;96366.91;;;5.58;69.92
6423;BME280;3244;42.708;23.288;2023-02-15T06:41:54;96374.41;;;5.44;70.34
6423;BME280;3244;42.708;23.288;2023-02-15T06:44:20;96372.75;;;5.51;70.25
6423;BME280;3244;42.708;23.288;2023-02-15T06:46:47;96370.28;;;5.57;70.37
6423;BME280;3244;42.708;23.288;2023-02-15T06:49:14;96366.97;;;5.70;70.04
6423;BME280;3244;42.708;23.288;2023-02-15T06:51:40;96369.59;;;5.85;68.70
6423;BME280;3244;42.708;23.288;2023-02-15T06:54:08;96366.25;;;5.88;68.00
6423;BME280;3244;42.708;23.288;2023-02-15T06:56:35;96373.03;;;5.90;68.56
6423;BME280;3244;42.708;23.288;2023-02-15T06:59:02;96372.22;;;5.91;68.48
6423;BME280;3244;42.708;23.288;2023-02-15T07:01:29;96373.91;;;5.98;68.17
6423;BME280;3244;42.708;23.288;2023-02-15T07:03:55;96372.22;;;5.97;68.25
6423;BME280;3244;42.708;23.288;2023-02-15T07:06:22;96377.34;;;6.09;67.41
6423;BME280;3244;42.708;23.288;2023-02-15T07:08:49;96379.91;;;6.17;66.46
6423;BME280;3244;42.708;23.288;2023-02-15T07:11:17;96368.97;;;6.26;67.14
6423;BME280;3244;42.708;23.288;2023-02-15T07:14:01;96369.00;;;6.32;67.10
6423;BME280;3244;42.708;23.288;2023-02-15T07:16:28;96364.88;;;6.51;65.66
6423;BME280;3244;42.708;23.288;2023-02-15T07:18:55;96379.22;;;6.62;64.88
6423;BME280;3244;42.708;23.288;2023-02-15T07:21:21;96379.25;;;6.65;65.30
6423;BME280;3244;42.708;23.288;2023-02-15T07:23:49;96380.06;;;6.63;64.74
6423;BME280;3244;42.708;23.288;2023-02-15T07:26:17;96382.56;;;6.58;63.89
6423;BME280;3244;42.708;23.288;2023-02-15T07:28:44;96385.09;;;6.55;64.50
6423;BME280;3244;42.708;23.288;2023-02-15T07:31:10;96380.06;;;6.60;64.35
6423;BME280;3244;42.708;23.288;2023-02-15T07:33:37;96384.28;;;6.64;64.38
6423;BME280;3244;42.708;23.288;2023-02-15T07:36:04;96375.84;;;6.69;64.17
6423;BME280;3244;42.708;23.288;2023-02-15T07:38:32;96372.50;;;6.76;63.96
6423;BME280;3244;42.708;23.288;2023-02-15T07:41:00;96370.84;;;6.88;63.42
6423;BME280;3244;42.708;23.288;2023-02-15T07:43:29;96367.50;;;6.90;63.25
6423;BME280;3244;42.708;23.288;2023-02-15T07:45:58;96370.84;;;6.81;63.83
6423;BME280;3244;42.708;23.288;2023-02-15T07:48:25;96369.16;;;6.80;63.62
6423;BME280;3244;42.708;23.288;2023-02-15T07:50:53;96367.47;;;6.82;63.59
6423;BME280;3244;42.708;23.288;2023-02-15T07:53:19;96365.81;;;6.91;63.19
6423;BME280;3244;42.708;23.288;2023-02-15T07:55:46;96368.34;;;7.01;62.84
6423;BME280;3244;42.708;23.288;2023-02-15T07:58:13;96359.91;;;7.02;62.96
6423;BME280;3244;42.708;23.288;2023-02-15T08:00:41;96355.72;;;7.10;63.21
6423;BME280;3244;42.708;23.288;2023-02-15T08:03:23;96347.31;;;7.16;63.13
6423;BME280;3244;42.708;23.288;2023-02-15T08:05:55;96366.69;;;7.41;62.77
6423;BME280;3244;42.708;23.288;2023-02-15T08:08:23;96357.38;;;7.43;61.87
6423;BME280;3244;42.708;23.288;2023-02-15T08:11:00;96357.38;;;7.53;61.36
6423;BME280;3244;42.708;23.288;2023-02-15T08:13:44;96365.00;;;7.40;60.65
6423;BME280;3244;42.708;23.288;2023-02-15T08:16:21;96370.88;;;7.30;61.27
6423;BME280;3244;42.708;23.288;2023-02-15T08:18:48;96362.47;;;7.16;61.81
6423;BME280;3244;42.708;23.288;2023-02-15T08:21:15;96370.88;;;7.18;61.79
6423;BME280;3244;42.708;23.288;2023-02-15T08:23:42;96363.31;;;7.30;61.45
6423;BME280;3244;42.708;23.288;2023-02-15T08:26:09;96368.38;;;7.38;60.96
6423;BME280;3244;42.708;23.288;2023-02-15T08:28:35;96364.16;;;7.38;60.77
6423;BME280;3244;42.708;23.288;2023-02-15T08:31:06;96370.88;;;7.47;61.07
6423;BME280;3244;42.708;23.288;2023-02-15T08:33:34;96378.47;;;7.47;60.43
6423;BME280;3244;42.708;23.288;2023-02-15T08:36:05;96372.56;;;7.46;60.32
6423;BME280;3244;42.708;23.288;2023-02-15T08:38:33;96365.81;;;7.59;59.79
6423;BME280;3244;42.708;23.288;2023-02-15T08:41:09;96369.16;;;7.79;59.17
6423;BME280;3244;42.708;23.288;2023-02-15T08:43:36;96371.69;;;7.84;59.18
6423;BME280;3244;42.708;23.288;2023-02-15T08:46:02;96368.31;;;7.83;58.61
6423;BME280;3244;42.708;23.288;2023-02-15T08:48:29;96373.38;;;7.85;59.10
6423;BME280;3244;42.708;23.288;2023-02-15T08:50:57;96368.25;;;8.00;58.05
6423;BME280;3244;42.708;23.288;2023-02-15T08:53:24;96380.84;;;8.17;57.17
6423;BME280;3244;42.708;23.288;2023-02-15T08:55:55;96367.34;;;8.35;56.37
6423;BME280;3244;42.708;23.288;2023-02-15T08:58:22;96363.06;;;8.44;56.62
6423;BME280;3244;42.708;23.288;2023-02-15T09:00:49;96366.41;;;8.48;56.13
6423;BME280;3244;42.708;23.288;2023-02-15T09:03:16;96378.28;;;8.31;56.79
6423;BME280;3244;42.708;23.288;2023-02-15T09:05:42;96384.22;;;8.36;56.42
6423;BME280;3244;42.708;23.288;2023-02-15T09:08:10;96377.44;;;8.41;55.98
6423;BME280;3244;42.708;23.288;2023-02-15T09:10:37;96367.28;;;8.44;55.66
6423;BME280;3244;42.708;23.288;2023-02-15T09:13:04;96370.59;;;8.58;55.66
6423;BME280;3244;42.708;23.288;2023-02-15T09:15:30;96358.78;;;8.60;55.17
6423;BME280;3244;42.708;23.288;2023-02-15T09:17:57;96369.66;;;8.76;54.87
6423;BME280;3244;42.708;23.288;2023-02-15T09:20:26;96366.91;;;9.11;54.53
6423;BME280;3244;42.708;23.288;2023-02-15T09:22:53;96363.25;;;9.45;53.77
6423;BME280;3244;42.708;23.288;2023-02-15T09:25:21;96358.09;;;9.54;52.72
6423;BME280;3244;42.708;23.288;2023-02-15T09:27:48;96367.59;;;9.31;53.21
6423;BME280;3244;42.708;23.288;2023-02-15T09:30:15;96370.19;;;9.25;53.21
6423;BME280;3244;42.708;23.288;2023-02-15T09:32:42;96370.97;;;9.32;53.44
6423;BME280;3244;42.708;23.288;2023-02-15T09:35:10;96368.28;;;9.50;53.58
6423;BME280;3244;42.708;23.288;2023-02-15T09:37:36;96370.81;;;9.50;52.83
6423;BME280;3244;42.708;23.288;2023-02-15T09:40:04;96369.16;;;9.47;53.23
6423;BME280;3244;42.708;23.288;2023-02-15T09:42:51;96371.06;;;9.16;53.75
6423;BME280;3244;42.708;23.288;2023-02-15T09:45:31;96366.78;;;9.26;53.54
6423;BME280;3244;42.708;23.288;2023-02-15T09:48:28;96367.50;;;9.40;53.51
6423;BME280;3244;42.708;23.288;2023-02-15T09:51:09;96357.94;;;9.70;52.80
6423;BME280;3244;42.708;23.288;2023-02-15T09:54:00;96360.47;;;9.70;52.02
6423;BME280;3244;42.708;23.288;2023-02-15T09:56:32;96354.53;;;9.74;52.48
6423;BME280;3244;42.708;23.288;2023-02-15T09:59:12;96352.72;;;9.88;52.06
6423;BME280;3244;42.708;23.288;2023-02-15T10:01:49;96351.69;;;10.03;51.57
6423;BME280;3244;42.708;23.288;2023-02-15T10:04:31;96354.25;;;10.01;51.13
6423;BME280;3244;42.708;23.288;2023-02-15T10:07:10;96353.31;;;10.10;50.98
6423;BME280;3244;42.708;23.288;2023-02-15T10:09:54;96350.41;;;10.42;50.67
6423;BME280;3244;42.708;23.288;2023-02-15T10:12:36;96348.22;;;10.79;49.48
6423;BME280;3244;42.708;23.288;2023-02-15T10:15:25;96348.03;;;10.93;48.70
6423;BME280;3244;42.708;23.288;2023-02-15T10:18:05;96342.81;;;11.02;48.63
6423;BME280;3244;42.708;23.288;2023-02-15T10:20:40;96348.03;;;10.93;48.01
6423;BME280;3244;42.708;23.288;2023-02-15T10:23:27;96340.56;;;10.83;48.74
6423;BME280;3244;42.708;23.288;2023-02-15T10:26:07;96335.34;;;10.89;48.65
6423;BME280;3244;42.708;23.288;2023-02-15T10:28:44;96335.13;;;11.06;48.22
6423;BME280;3244;42.708;23.288;2023-02-15T10:31:20;96334.03;;;11.21;48.32
6423;BME280;3244;42.708;23.288;2023-02-15T10:33:54;96333.16;;;11.22;47.94
6423;BME280;3244;42.708;23.288;2023-02-15T10:36:32;96329.78;;;11.21;47.82
6423;BME280;3244;42.708;23.288;2023-02-15T10:39:09;96329.88;;;11.15;47.84
6423;BME280;3244;42.708;23.288;2023-02-15T10:41:46;96315.41;;;11.19;47.73
6423;BME280;3244;42.708;23.288;2023-02-15T10:44:30;96316.38;;;11.13;48.07
6423;BME280;3244;42.708;23.288;2023-02-15T10:47:11;96317.91;;;11.22;47.59
6423;BME280;3244;42.708;23.288;2023-02-15T10:50:06;96324.50;;;11.35;47.66
6423;BME280;3244;42.708;23.288;2023-02-15T10:52:47;96309.03;;;11.46;47.62
6423;BME280;3244;42.708;23.288;2023-02-15T10:55:26;96304.69;;;11.51;47.00
6423;BME280;3244;42.708;23.288;2023-02-15T10:58:05;96312.81;;;11.22;47.68
6423;BME280;3244;42.708;23.288;2023-02-15T11:00:41;96312.56;;;10.83;47.95
6423;BME280;3244;42.708;23.288;2023-02-15T11:03:31;96316.53;;;10.40;48.79
6423;BME280;3244;42.708;23.288;2023-02-15T11:06:04;96307.63;;;10.05;49.42
6423;BME280;3244;42.708;23.288;2023-02-15T11:08:34;96303.50;;;9.95;50.36
6423;BME280;3244;42.708;23.288;2023-02-15T11:11:06;96306.06;;;9.95;50.65
6423;BME280;3244;42.708;23.288;2023-02-15T11:13:36;96316.78;;;10.21;50.28
6423;BME280;3244;42.708;23.288;2023-02-15T11:16:07;96306.16;;;10.58;49.22
6423;BME280;3244;42.708;23.288;2023-02-15T11:18:41;96305.63;;;10.93;48.82
6423;BME280;3244;42.708;23.288;2023-02-15T11:21:14;96312.31;;;11.00;47.94
6423;BME280;3244;42.708;23.288;2023-02-15T11:23:44;96304.03;;;10.87;47.71
6423;BME280;3244;42.708;23.288;2023-02-15T11:26:13;96299.41;;;10.55;48.58
6423;BME280;3244;42.708;23.288;2023-02-15T11:28:45;96300.59;;;10.30;49.64
6423;BME280;3244;42.708;23.288;2023-02-15T11:31:17;96307.13;;;9.74;50.93
6423;BME280;3244;42.708;23.288;2023-02-15T11:33:48;96295.50;;;9.53;51.24
6423;BME280;3244;42.708;23.288;2023-02-15T11:36:21;96299.81;;;9.45;51.56
6423;BME280;3244;42.708;23.288;2023-02-15T11:38:56;96294.84;;;9.36;51.82
6423;BME280;3244;42.708;23.288;2023-02-15T11:41:28;96300.84;;;9.23;52.02
6423;BME280;3244;42.708;23.288;2023-02-15T11:43:59;96295.91;;;9.11;52.47
6423;BME280;3244;42.708;23.288;2023-02-15T11:46:27;96295.91;;;9.08;52.51
6423;BME280;3244;42.708;23.288;2023-02-15T11:48:55;96289.91;;;9.16;52.75
6423;BME280;3244;42.708;23.288;2023-02-15T11:51:24;96281.50;;;9.14;52.79
6423;BME280;3244;42.708;23.288;2023-02-15T11:53:53;96284.06;;;9.13;53.03
6423;BME280;3244;42.708;23.288;2023-02-15T11:56:21;96279.75;;;9.18;53.04
6423;BME280;3244;42.708;23.288;2023-02-15T11:58:52;96278.13;;;9.15;52.48
6423;BME280;3244;42.708;23.288;2023-02-15T12:01:24;96272.28;;;9.03;52.42
6423;BME280;3244;42.708;23.288;2023-02-15T12:03:57;96268.09;;;8.97;52.30
6423;BME280;3244;42.708;23.288;2023-02-15T12:06:27;96268.09;;;8.96;53.15
6423;BME280;3244;42.708;23.288;2023-02-15T12:09:01;96260.41;;;9.08;53.04
6423;BME280;3244;42.708;23.288;2023-02-15T12:11:35;96249.31;;;9.19;53.52
6423;BME280;3244;42.708;23.288;2023-02-15T12:14:04;96261.16;;;9.19;52.87
6423;BME280;3244;42.708;23.288;2023-02-15T12:16:40;96256.13;;;9.14;52.51
6423;BME280;3244;42.708;23.288;2023-02-15T12:19:29;96246.97;;;8.97;52.92
6423;BME280;3244;42.708;23.288;2023-02-15T12:21:58;96246.31;;;8.72;53.21
6423;BME280;3244;42.708;23.288;2023-02-15T12:24:28;96250.63;;;8.62;53.98
6423;BME280;3244;42.708;23.288;2023-02-15T12:26:57;96242.19;;;8.63;54.25
6423;BME280;3244;42.708;23.288;2023-02-15T12:29:28;96243.94;;;8.55;54.56
6423;BME280;3244;42.708;23.288;2023-02-15T12:31:56;96251.56;;;8.46;53.90
6423;BME280;3244;42.708;23.288;2023-02-15T12:34:29;96247.41;;;8.39;54.62
6423;BME280;3244;42.708;23.288;2023-02-15T12:36:57;96244.06;;;8.34;54.26
6423;BME280;3244;42.708;23.288;2023-02-15T12:39:28;96228.84;;;8.31;55.03
6423;BME280;3244;42.708;23.288;2023-02-15T12:42:04;96228.91;;;8.22;55.42
6423;BME280;3244;42.708;23.288;2023-02-15T12:44:32;96228.78;;;8.43;55.21
6423;BME280;3244;42.708;23.288;2023-02-15T12:47:01;96211.06;;;8.43;54.12
6423;BME280;3244;42.708;23.288;2023-02-15T12:49:31;96211.88;;;8.49;53.90
6423;BME280;3244;42.708;23.288;2023-02-15T12:51:59;96214.41;;;8.48;54.63
6423;BME280;3244;42.708;23.288;2023-02-15T12:54:37;96214.38;;;8.51;54.55
6423;BME280;3244;42.708;23.288;2023-02-15T12:57:23;96215.25;;;8.48;53.94
6423;BME280;3244;42.708;23.288;2023-02-15T12:59:53;96200.06;;;8.44;54.46
6423;BME280;3244;42.708;23.288;2023-02-15T13:02:23;96218.63;;;8.49;53.78
6423;BME280;3244;42.708;23.288;2023-02-15T13:04:53;96210.22;;;8.44;53.80
6423;BME280;3244;42.708;23.288;2023-02-15T13:07:21;96202.56;;;8.51;54.61
6423;BME280;3244;42.708;23.288;2023-02-15T13:09:49;96196.66;;;8.51;53.84
6423;BME280;3244;42.708;23.288;2023-02-15T13:12:19;96209.28;;;8.57;54.38
6423;BME280;3244;42.708;23.288;2023-02-15T13:14:48;96206.72;;;8.63;54.63
6423;BME280;3244;42.708;23.288;2023-02-15T13:17:19;96204.91;;;8.74;53.71
6423;BME280;3244;42.708;23.288;2023-02-15T13:19:51;96207.41;;;8.79;52.88
6423;BME280;3244;42.708;23.288;2023-02-15T13:22:22;96201.53;;;8.75;53.17
6423;BME280;3244;42.708;23.288;2023-02-15T13:24:54;96196.59;;;8.60;53.58
6423;BME280;3244;42.708;23.288;2023-02-15T13:27:26;96193.22;;;8.58;53.38
6423;BME280;3244;42.708;23.288;2023-02-15T13:29:59;96194.03;;;8.63;54.20
6423;BME280;3244;42.708;23.288;2023-02-15T13:32:30;96202.50;;;8.61;54.37
6423;BME280;3244;42.708;23.288;2023-02-15T13:35:00;96200.81;;;8.61;54.11
6423;BME280;3244;42.708;23.288;2023-02-15T13:37:47;96197.53;;;8.45;54.45
6423;BME280;3244;42.708;23.288;2023-02-15T13:40:18;96206.84;;;8.43;55.22
6423;BME280;3244;42.708;23.288;2023-02-15T13:42:53;96205.94;;;8.50;55.21
6423;BME280;3244;42.708;23.288;2023-02-15T13:45:37;96208.53;;;8.43;55.47